Time;durP1;ratioP1;P1;durP2;ratioP2;P2;SDS_P1;SDS_P2;PMS_P1;PMS_P2;Temp;Humidity;BMP_temperature;BMP_pressure;BME280_temperature;BME280_humidity;BME280_pressure;Samples;Min_cycle;Max_cycle;Signal;HPM_P1;HPM_P2
2022/11/06 00:00:25;;;;;;;3.53;2.00;;;7.10;99.90;;;;;;5075617;28;20188;-90
2022/11/06 00:02:51;;;;;;;3.50;2.33;;;7.10;99.90;;;;;;5076370;28;20648;-90
2022/11/06 00:08:00;;;;;;;5.18;2.03;;;7.10;99.90;;;;;;5076129;28;20176;-90
2022/11/06 00:10:28;;;;;;;5.20;2.50;;;7.10;99.90;;;;;;5076691;28;20617;-90
2022/11/06 00:12:54;;;;;;;5.25;2.45;;;7.00;99.90;;;;;;5076913;28;20261;-91
2022/11/06 00:15:19;;;;;;;2.93;2.07;;;7.00;99.90;;;;;;5063219;28;20191;-84
2022/11/06 00:17:48;;;;;;;4.00;2.57;;;7.00;99.90;;;;;;5080562;28;20184;-91
2022/11/06 00:20:13;;;;;;;7.22;2.20;;;6.90;99.90;;;;;;5078629;28;20263;-91
2022/11/06 00:22:39;;;;;;;3.57;2.00;;;6.90;99.90;;;;;;5061826;28;20204;-91
2022/11/06 00:25:06;;;;;;;4.10;2.30;;;6.90;99.90;;;;;;5080231;28;20239;-90
2022/11/06 00:27:35;;;;;;;3.75;1.80;;;6.90;99.90;;;;;;5080280;28;20267;-90
2022/11/06 00:30:01;;;;;;;2.85;1.98;;;6.80;99.90;;;;;;5079520;28;20188;-89
2022/11/06 00:32:27;;;;;;;4.10;3.40;;;6.80;99.90;;;;;;5078391;28;20185;-91
2022/11/06 00:34:52;;;;;;;8.53;2.80;;;6.80;99.90;;;;;;5061627;28;20185;-91
2022/11/06 00:37:18;;;;;;;3.60;2.70;;;6.80;99.90;;;;;;5061855;28;20187;-86
2022/11/06 00:39:43;;;;;;;3.80;2.00;;;6.80;99.90;;;;;;5074185;28;20629;-87
2022/11/06 00:42:09;;;;;;;5.30;3.07;;;6.80;99.90;;;;;;5074055;28;20811;-90
2022/11/06 00:44:34;;;;;;;4.20;2.20;;;6.80;99.90;;;;;;5070784;28;20232;-88
2022/11/06 00:47:00;;;;;;;6.07;2.40;;;6.70;99.90;;;;;;5071475;28;20281;-90
2022/11/06 00:49:26;;;;;;;6.17;2.17;;;6.70;99.90;;;;;;5072583;28;20188;-87
2022/11/06 00:51:52;;;;;;;3.22;1.92;;;6.70;99.90;;;;;;5074588;28;20187;-92
2022/11/06 00:54:18;;;;;;;2.80;1.70;;;6.70;99.90;;;;;;5077959;28;20205;-90
2022/11/06 00:56:43;;;;;;;6.50;2.40;;;6.80;99.90;;;;;;5077820;28;20184;-91
2022/11/06 00:59:11;;;;;;;7.93;2.00;;;6.80;99.90;;;;;;5079104;28;20651;-91
2022/11/06 01:01:42;;;;;;;4.25;2.00;;;6.70;99.90;;;;;;5079130;28;20177;-91
2022/11/06 01:04:14;;;;;;;4.88;2.22;;;6.70;99.90;;;;;;5079663;28;20164;-91
2022/11/06 01:06:42;;;;;;;8.73;2.50;;;6.70;99.90;;;;;;5077538;28;20211;-91
2022/11/06 01:09:10;;;;;;;4.05;3.33;;;6.70;99.90;;;;;;5081017;28;20169;-90
2022/11/06 01:11:40;;;;;;;3.65;1.90;;;6.70;99.90;;;;;;5080526;28;20611;-91
2022/11/06 01:14:07;;;;;;;4.90;2.42;;;6.70;99.90;;;;;;5081460;28;20189;-92
2022/11/06 01:16:34;;;;;;;6.15;2.50;;;6.70;99.90;;;;;;5078311;28;20571;-91
2022/11/06 01:18:59;;;;;;;2.83;1.88;;;6.70;99.90;;;;;;5077952;28;20239;-91
2022/11/06 01:21:34;;;;;;;7.60;2.33;;;6.70;99.90;;;;;;5077464;28;20185;-90
2022/11/06 01:24:05;;;;;;;3.70;1.85;;;6.70;99.90;;;;;;5082776;28;20395;-91
2022/11/06 01:26:31;;;;;;;4.90;2.25;;;6.80;99.90;;;;;;5078707;28;20244;-92
2022/11/06 01:28:57;;;;;;;10.23;2.20;;;6.80;99.90;;;;;;5061874;28;20196;-91
2022/11/06 01:31:25;;;;;;;7.17;1.80;;;6.80;99.90;;;;;;5078319;28;20452;-91
2022/11/06 01:33:52;;;;;;;3.55;2.00;;;6.80;99.90;;;;;;5079389;28;20407;-92
2022/11/06 01:36:19;;;;;;;4.47;2.10;;;6.80;99.90;;;;;;5079117;28;20184;-90
2022/11/06 01:38:47;;;;;;;6.28;2.25;;;6.90;99.90;;;;;;5081163;28;20255;-91
2022/11/06 01:41:28;;;;;;;6.85;1.98;;;6.90;99.90;;;;;;5080717;28;20386;-91
2022/11/06 01:43:56;;;;;;;7.40;1.80;;;6.90;99.90;;;;;;5083445;28;20158;-92
2022/11/06 01:46:25;;;;;;;8.15;2.47;;;6.80;99.90;;;;;;5080200;28;20236;-91
2022/11/06 01:48:55;;;;;;;4.63;2.00;;;6.90;99.90;;;;;;5079754;28;20173;-89
2022/11/06 01:51:25;;;;;;;9.10;2.50;;;6.90;99.90;;;;;;5073303;28;20175;-91
2022/11/06 01:53:52;;;;;;;4.85;2.08;;;6.80;99.90;;;;;;5073794;28;20793;-92
2022/11/06 01:56:19;;;;;;;4.93;1.80;;;6.80;99.90;;;;;;5073347;28;20629;-86
2022/11/06 01:58:47;;;;;;;5.68;1.70;;;6.80;99.90;;;;;;5072136;28;21054;-91
2022/11/06 02:01:14;;;;;;;5.35;2.25;;;6.80;99.90;;;;;;5075688;28;20212;-92
2022/11/06 02:03:47;;;;;;;3.22;1.90;;;6.80;99.90;;;;;;5077959;28;20180;-91
2022/11/06 02:06:13;;;;;;;3.70;1.95;;;6.80;99.90;;;;;;5078065;28;20389;-88
2022/11/06 02:08:38;;;;;;;9.37;2.70;;;6.90;99.90;;;;;;5061189;28;20296;-90
2022/11/06 02:11:04;;;;;;;3.40;2.00;;;6.80;99.90;;;;;;5077613;28;20181;-91
2022/11/06 02:14:04;;;;;;;8.00;2.23;;;6.90;99.90;;;;;;5077613;28;20481;-91
2022/11/06 02:16:37;;;;;;;4.80;2.42;;;6.80;99.90;;;;;;5078032;28;20182;-90
2022/11/06 02:19:34;;;;;;;11.45;2.10;;;6.80;99.90;;;;;;5077638;28;20594;-91
2022/11/06 02:22:35;;;;;;;5.07;1.88;;;6.80;99.90;;;;;;5076374;28;20178;-90
2022/11/06 02:25:33;;;;;;;4.90;2.00;;;6.90;99.90;;;;;;5075260;28;20179;-90
2022/11/06 02:28:02;;;;;;;2.80;1.48;;;6.90;99.90;;;;;;5043796;28;20188;-91
2022/11/06 02:30:32;;;;;;;8.38;2.17;;;6.90;99.90;;;;;;5076712;28;20537;-86
2022/11/06 02:33:06;;;;;;;2.28;1.65;;;6.90;99.90;;;;;;5075639;28;20682;-91
2022/11/06 02:35:46;;;;;;;7.13;2.08;;;6.90;99.90;;;;;;5075701;28;20246;-91
2022/11/06 02:38:19;;;;;;;7.07;1.98;;;6.90;99.90;;;;;;5077721;28;20160;-91
2022/11/06 02:40:51;;;;;;;4.30;2.08;;;6.90;99.90;;;;;;5083376;28;20792;-84
2022/11/06 02:43:18;;;;;;;6.78;2.05;;;6.90;99.90;;;;;;5081258;28;20177;-89
2022/11/06 02:45:52;;;;;;;6.22;1.83;;;7.00;99.90;;;;;;5078997;28;20268;-91
2022/11/06 02:48:22;;;;;;;8.85;2.08;;;7.00;99.90;;;;;;5078053;28;20525;-91
2022/11/06 02:50:50;;;;;;;4.20;1.98;;;7.00;99.90;;;;;;5080823;28;20173;-90
2022/11/06 02:53:18;;;;;;;3.88;2.00;;;7.00;99.90;;;;;;5081785;28;20269;-91
2022/11/06 02:55:48;;;;;;;2.55;1.50;;;6.90;99.90;;;;;;5078936;28;20610;-92
2022/11/06 02:58:17;;;;;;;5.85;2.10;;;6.90;99.90;;;;;;5077038;28;20183;-90
2022/11/06 03:00:52;;;;;;;3.67;1.90;;;6.80;99.90;;;;;;5077559;28;20247;-91
2022/11/06 03:03:29;;;;;;;5.85;1.95;;;6.80;99.90;;;;;;5077418;28;20210;-91
2022/11/06 03:06:11;;;;;;;6.03;1.73;;;6.80;99.90;;;;;;5074659;28;20204;-87
2022/11/06 03:08:53;;;;;;;2.33;1.70;;;6.70;99.90;;;;;;5071445;28;20176;-87
2022/11/06 03:11:31;;;;;;;3.33;2.08;;;6.60;99.90;;;;;;5071181;28;20176;-90
2022/11/06 03:14:01;;;;;;;5.13;2.03;;;6.50;99.90;;;;;;5071824;28;20215;-90
2022/11/06 03:16:48;;;;;;;7.28;1.90;;;6.50;99.90;;;;;;5073657;28;20176;-89
2022/11/06 03:19:23;;;;;;;2.72;1.40;;;6.50;99.90;;;;;;5073946;28;20181;-91
2022/11/06 03:22:15;;;;;;;3.80;1.70;;;6.50;99.90;;;;;;5081384;28;20172;-91
2022/11/06 03:24:40;;;;;;;5.10;1.58;;;6.40;99.90;;;;;;5080919;28;20195;-91
2022/11/06 03:27:50;;;;;;;2.73;1.80;;;6.40;99.90;;;;;;5083158;28;20248;-85
2022/11/06 03:30:15;;;;;;;4.20;2.00;;;6.40;99.90;;;;;;5082492;28;20185;-90
2022/11/06 03:32:57;;;;;;;4.13;2.07;;;6.40;99.90;;;;;;5078701;28;20193;-91
2022/11/06 03:35:25;;;;;;;4.28;1.85;;;6.40;99.90;;;;;;5079401;28;20180;-92
2022/11/06 03:38:08;;;;;;;2.85;2.05;;;6.30;99.90;;;;;;5079550;28;20187;-90
2022/11/06 03:40:39;;;;;;;2.80;1.63;;;6.30;99.90;;;;;;5080042;28;20184;-90
2022/11/06 03:43:07;;;;;;;8.48;2.05;;;6.30;99.90;;;;;;5081706;28;20181;-90
2022/11/06 03:45:35;;;;;;;3.60;1.95;;;6.30;99.90;;;;;;5079478;28;20231;-90
2022/11/06 03:48:18;;;;;;;5.30;1.90;;;6.20;99.90;;;;;;5084039;28;20176;-92
2022/11/06 03:50:56;;;;;;;4.82;1.92;;;6.20;99.90;;;;;;5086678;28;20161;-91
2022/11/06 03:53:36;;;;;;;2.28;1.75;;;6.20;99.90;;;;;;5084602;28;20172;-92
2022/11/06 03:56:09;;;;;;;2.80;1.73;;;6.10;99.90;;;;;;5085602;28;20180;-91
2022/11/06 03:58:39;;;;;;;4.65;2.53;;;6.10;99.90;;;;;;5084885;28;20169;-92
2022/11/06 04:01:08;;;;;;;8.70;2.22;;;6.10;99.90;;;;;;5087018;28;20232;-92
2022/11/06 04:03:48;;;;;;;4.97;1.80;;;6.10;99.90;;;;;;5086777;28;20168;-89
2022/11/06 04:06:22;;;;;;;3.95;2.13;;;6.10;99.90;;;;;;5086257;28;20610;-92
2022/11/06 04:14:23;;;;;;;4.97;2.83;;;6.10;99.90;;;;;;5088721;28;20626;-91
2022/11/06 04:16:53;;;;;;;2.40;2.20;;;6.10;99.90;;;;;;5081133;28;20603;-91
2022/11/06 04:19:20;;;;;;;3.10;1.80;;;6.10;99.90;;;;;;5081319;28;20177;-91
2022/11/06 04:21:58;;;;;;;4.32;2.10;;;6.10;99.90;;;;;;5079855;28;20173;-90
2022/11/06 04:27:32;;;;;;;3.60;1.55;;;6.10;99.90;;;;;;5083535;28;20302;-91
2022/11/06 04:30:06;;;;;;;6.63;1.88;;;6.10;99.90;;;;;;5081554;28;20170;-91
2022/11/06 04:32:53;;;;;;;5.00;2.13;;;6.10;99.90;;;;;;5079920;28;20175;-91
2022/11/06 04:35:55;;;;;;;1.85;1.50;;;6.20;99.90;;;;;;5082300;28;20196;-90
2022/11/06 04:38:49;;;;;;;4.70;2.13;;;6.30;99.90;;;;;;5050382;28;20230;-92
2022/11/06 04:41:40;;;;;;;2.83;1.88;;;6.30;99.90;;;;;;5079771;28;20641;-91
2022/11/06 04:44:16;;;;;;;5.63;2.20;;;6.40;99.90;;;;;;5080239;28;20188;-91
2022/11/06 04:46:47;;;;;;;2.85;1.40;;;6.50;99.90;;;;;;5079904;28;20302;-91
2022/11/06 04:49:13;;;;;;;2.10;1.30;;;6.50;99.90;;;;;;5078793;28;20568;-88
2022/11/06 04:51:41;;;;;;;1.95;1.50;;;6.60;99.90;;;;;;5080083;28;20535;-91
2022/11/06 04:54:09;;;;;;;5.13;1.60;;;6.60;99.90;;;;;;5078574;28;20199;-92
2022/11/06 04:56:35;;;;;;;5.35;2.15;;;6.70;99.90;;;;;;5045649;28;20188;-92
2022/11/06 04:59:03;;;;;;;3.42;1.60;;;6.70;99.90;;;;;;5077415;28;20260;-91
2022/11/06 05:01:28;;;;;;;6.75;2.13;;;6.70;99.90;;;;;;5078524;28;20181;-91
2022/11/06 05:03:54;;;;;;;2.40;1.67;;;6.80;99.90;;;;;;5079415;28;20174;-91
2022/11/06 05:06:19;;;;;;;3.03;1.67;;;6.80;99.90;;;;;;5080804;28;20212;-92
2022/11/06 05:08:45;;;;;;;7.30;2.13;;;6.90;99.90;;;;;;5079998;28;20261;-91
2022/11/06 05:11:12;;;;;;;7.10;1.83;;;6.90;99.90;;;;;;5081280;28;20300;-92
2022/11/06 05:13:38;;;;;;;2.63;1.30;;;6.90;99.90;;;;;;5081418;28;20627;-84
2022/11/06 05:16:04;;;;;;;3.63;1.93;;;6.90;99.90;;;;;;5063277;28;20204;-92
2022/11/06 05:18:30;;;;;;;10.95;2.20;;;6.90;99.90;;;;;;5081361;28;20187;-91
2022/11/06 05:23:44;;;;;;;2.65;1.30;;;7.00;99.90;;;;;;5080202;28;20386;-92
2022/11/06 05:26:09;;;;;;;7.67;2.13;;;7.10;99.90;;;;;;5081528;28;20567;-92
2022/11/06 05:28:35;;;;;;;8.13;1.70;;;7.20;99.90;;;;;;5078639;28;20183;-92
2022/11/06 05:31:00;;;;;;;4.57;2.00;;;7.20;99.90;;;;;;5080371;28;20180;-92
2022/11/06 05:33:26;;;;;;;5.13;2.10;;;7.20;99.90;;;;;;5081463;28;20181;-92
2022/11/06 05:35:52;;;;;;;4.13;1.67;;;7.20;99.90;;;;;;5078819;28;20184;-91
2022/11/06 05:38:17;;;;;;;5.17;2.10;;;7.20;99.90;;;;;;5061156;28;20199;-91
2022/11/06 05:40:43;;;;;;;8.03;2.10;;;7.20;99.90;;;;;;5078775;28;20185;-88
2022/11/06 05:43:09;;;;;;;7.37;2.10;;;7.20;99.90;;;;;;5078141;28;20181;-91
2022/11/06 05:45:34;;;;;;;3.25;2.10;;;7.20;99.90;;;;;;5079008;28;20236;-91
2022/11/06 05:48:00;;;;;;;7.97;1.97;;;7.20;99.90;;;;;;5060494;28;20187;-91
2022/11/06 05:50:26;;;;;;;3.60;2.00;;;7.10;99.90;;;;;;5077613;28;20267;-92
2022/11/06 05:52:51;;;;;;;5.57;1.90;;;7.10;99.90;;;;;;5076941;28;20566;-92
2022/11/06 05:55:18;;;;;;;4.57;1.60;;;7.10;99.90;;;;;;5078766;28;20177;-91
2022/11/06 05:57:44;;;;;;;2.85;1.70;;;7.20;99.90;;;;;;5078668;28;20258;-92
2022/11/06 06:00:11;;;;;;;6.00;1.70;;;7.10;99.90;;;;;;5079085;28;20181;-92
2022/11/06 06:02:36;;;;;;;4.55;1.83;;;7.10;99.90;;;;;;5060336;28;20244;-90
2022/11/06 06:05:03;;;;;;;2.80;2.00;;;7.10;99.90;;;;;;5080867;28;20203;-93
2022/11/06 06:07:29;;;;;;;4.18;2.25;;;7.20;99.90;;;;;;5081811;28;20275;-92
2022/11/06 06:09:55;;;;;;;3.38;1.80;;;7.20;99.90;;;;;;5081081;28;20173;-91
2022/11/06 06:12:22;;;;;;;7.07;2.60;;;7.10;99.90;;;;;;5077310;28;20188;-91
2022/11/06 06:14:48;;;;;;;2.20;1.75;;;7.10;99.90;;;;;;5076549;28;20279;-91
2022/11/06 06:17:14;;;;;;;2.43;1.30;;;7.20;99.90;;;;;;5076138;28;20576;-91
2022/11/06 06:19:39;;;;;;;6.40;2.20;;;7.10;99.90;;;;;;5075321;28;20180;-91
2022/11/06 06:22:05;;;;;;;3.23;1.70;;;7.20;99.90;;;;;;5077734;28;20623;-91
2022/11/06 06:24:30;;;;;;;7.87;2.40;;;7.20;99.90;;;;;;5058826;28;20199;-89
2022/11/06 06:26:56;;;;;;;5.17;1.67;;;7.20;99.90;;;;;;5075418;28;20215;-89
2022/11/06 06:29:21;;;;;;;8.10;2.17;;;7.20;99.90;;;;;;5075851;28;20385;-90
2022/11/06 06:31:48;;;;;;;5.47;1.80;;;7.20;99.90;;;;;;5075914;28;20180;-91
2022/11/06 06:34:14;;;;;;;5.40;1.90;;;7.20;99.90;;;;;;5059506;28;20201;-91
2022/11/06 06:36:40;;;;;;;3.73;1.70;;;7.20;99.90;;;;;;5077493;28;20211;-91
2022/11/06 06:39:05;;;;;;;9.77;3.13;;;7.20;99.90;;;;;;5041867;28;20434;-89
2022/11/06 06:41:32;;;;;;;4.53;1.90;;;7.20;99.90;;;;;;5058522;28;20180;-88
2022/11/06 06:43:58;;;;;;;7.65;2.05;;;7.20;99.90;;;;;;5074494;28;20211;-91
2022/11/06 06:46:23;;;;;;;6.28;2.20;;;7.30;99.90;;;;;;5074517;28;20259;-91
2022/11/06 06:48:49;;;;;;;4.63;1.93;;;7.30;99.90;;;;;;5074791;28;20188;-92
2022/11/06 06:51:15;;;;;;;6.03;2.37;;;7.30;99.90;;;;;;5079105;28;20185;-89
2022/11/06 06:53:40;;;;;;;6.07;2.30;;;7.30;99.90;;;;;;5058312;28;20292;-90
2022/11/06 06:56:06;;;;;;;11.33;2.17;;;7.30;99.90;;;;;;5074545;28;20227;-90
2022/11/06 06:58:32;;;;;;;2.70;2.07;;;7.30;99.90;;;;;;5075725;28;20177;-90
2022/11/06 07:01:02;;;;;;;5.57;2.10;;;7.40;99.90;;;;;;5070601;28;20182;-91
2022/11/06 07:03:28;;;;;;;3.28;2.00;;;7.40;99.90;;;;;;5056229;28;20158;-90
2022/11/06 07:05:53;;;;;;;4.97;1.87;;;7.40;99.90;;;;;;5059906;28;20215;-90
2022/11/06 07:08:19;;;;;;;4.10;2.03;;;7.40;99.90;;;;;;5039519;28;20474;-91
2022/11/06 07:10:44;;;;;;;6.33;2.10;;;7.50;99.90;;;;;;5037808;28;20181;-86
2022/11/06 07:13:10;;;;;;;7.40;2.67;;;7.50;99.90;;;;;;5038045;28;20177;-90
2022/11/06 07:15:36;;;;;;;6.37;2.23;;;7.50;99.90;;;;;;5055326;28;20264;-91
2022/11/06 07:18:03;;;;;;;9.00;2.43;;;7.60;99.90;;;;;;5054365;28;20182;-90
2022/11/06 07:20:29;;;;;;;9.27;1.90;;;7.60;99.90;;;;;;5055246;28;20277;-90
2022/11/06 07:22:55;;;;;;;5.07;2.60;;;7.70;99.90;;;;;;5041461;28;20178;-86
2022/11/06 07:25:21;;;;;;;4.33;2.70;;;7.80;99.90;;;;;;5062279;28;20522;-90
2022/11/06 07:27:46;;;;;;;3.73;2.17;;;7.90;99.90;;;;;;5060706;28;20178;-88
2022/11/06 07:30:12;;;;;;;3.53;1.70;;;8.10;99.90;;;;;;5022751;28;20254;-90
2022/11/06 07:32:37;;;;;;;11.83;2.37;;;8.10;99.90;;;;;;5056487;28;20213;-89
2022/11/06 07:35:04;;;;;;;5.90;1.83;;;8.20;99.90;;;;;;5054166;28;20189;-85
2022/11/06 07:37:30;;;;;;;6.65;2.03;;;8.30;99.90;;;;;;5049677;28;20181;-88
2022/11/06 07:39:55;;;;;;;7.43;2.57;;;8.40;99.90;;;;;;5018539;28;20203;-89
2022/11/06 07:42:21;;;;;;;7.30;2.10;;;8.50;99.90;;;;;;5055360;28;20181;-90
2022/11/06 07:44:47;;;;;;;5.33;2.00;;;8.70;99.90;;;;;;5054283;28;20225;-87
2022/11/06 07:47:12;;;;;;;4.30;2.07;;;8.80;99.90;;;;;;5053956;28;20255;-90
2022/11/06 07:49:38;;;;;;;7.20;2.20;;;8.90;99.90;;;;;;5054603;28;20182;-90
2022/11/06 07:52:04;;;;;;;9.83;2.30;;;9.00;99.90;;;;;;5035685;28;20200;-88
2022/11/06 07:54:30;;;;;;;7.95;2.40;;;9.20;99.90;;;;;;5052871;28;20192;-88
2022/11/06 07:56:56;;;;;;;4.90;1.80;;;9.30;99.90;;;;;;5035166;28;20189;-89
2022/11/06 07:59:22;;;;;;;6.40;1.90;;;9.30;99.90;;;;;;5053103;28;20184;-89
2022/11/06 08:01:47;;;;;;;4.90;2.43;;;9.30;99.90;;;;;;5053385;28;20408;-84
2022/11/06 08:04:13;;;;;;;4.20;1.73;;;9.30;99.90;;;;;;5053049;28;20185;-89
2022/11/06 08:06:38;;;;;;;7.10;2.40;;;9.30;99.90;;;;;;5052970;28;20258;-89
2022/11/06 08:09:07;;;;;;;6.87;2.77;;;9.40;99.90;;;;;;5054172;28;20189;-89
2022/11/06 08:11:33;;;;;;;5.70;2.05;;;9.40;99.90;;;;;;5052697;28;20184;-89
2022/11/06 08:14:00;;;;;;;5.30;1.80;;;9.50;99.90;;;;;;5051855;28;20185;-89
2022/11/06 08:16:25;;;;;;;15.25;2.13;;;9.60;99.90;;;;;;5052665;28;20633;-89
2022/11/06 08:18:51;;;;;;;4.60;2.20;;;9.70;99.90;;;;;;5053902;28;20181;-88
2022/11/06 08:21:16;;;;;;;3.00;1.80;;;9.80;99.90;;;;;;5052957;28;20181;-86
2022/11/06 08:23:42;;;;;;;5.40;2.60;;;10.00;99.90;;;;;;5055111;28;20231;-89
2022/11/06 08:26:09;;;;;;;4.60;2.70;;;10.10;99.90;;;;;;5054100;28;20969;-89
2022/11/06 08:28:34;;;;;;;3.95;2.03;;;10.30;99.90;;;;;;5055913;28;20587;-89
2022/11/06 08:31:08;;;;;;;7.70;2.77;;;10.40;99.90;;;;;;5055018;28;20191;-80
2022/11/06 08:33:35;;;;;;;2.95;2.00;;;10.50;99.90;;;;;;5053946;28;20170;-80
2022/11/06 08:36:02;;;;;;;3.88;2.00;;;10.60;99.90;;;;;;5056620;28;20200;-80
2022/11/06 08:38:28;;;;;;;6.82;2.40;;;10.70;99.90;;;;;;5056383;28;20222;-80
2022/11/06 08:40:54;;;;;;;6.33;2.20;;;10.80;99.90;;;;;;5063273;28;20608;-85
2022/11/06 08:43:23;;;;;;;15.47;2.93;;;10.80;99.90;;;;;;5062839;28;20174;-83
2022/11/06 08:45:48;;;;;;;2.20;1.98;;;11.00;99.90;;;;;;5069412;28;20228;-84
2022/11/06 08:48:14;;;;;;;6.07;3.07;;;11.00;99.90;;;;;;5074775;28;20207;-82
2022/11/06 08:50:40;;;;;;;6.33;2.43;;;11.10;99.90;;;;;;5059045;28;20195;-86
2022/11/06 08:53:06;;;;;;;5.03;2.20;;;11.20;99.90;;;;;;5075295;28;20196;-84
2022/11/06 08:55:33;;;;;;;8.98;3.00;;;11.30;99.90;;;;;;5076693;28;20185;-84
2022/11/06 08:57:59;;;;;;;5.40;2.15;;;11.40;99.90;;;;;;5076585;28;20181;-83
2022/11/06 09:00:25;;;;;;;5.30;2.55;;;11.30;99.90;;;;;;5076641;28;20184;-83
2022/11/06 09:02:57;;;;;;;3.33;1.58;;;11.40;99.90;;;;;;5076223;28;20180;-81
2022/11/06 09:05:22;;;;;;;3.40;1.75;;;11.40;99.90;;;;;;5075456;28;20560;-84
2022/11/06 09:07:48;;;;;;;3.20;2.30;;;11.40;99.90;;;;;;5057220;28;20180;-84
2022/11/06 09:10:14;;;;;;;7.27;2.50;;;11.40;99.90;;;;;;5065487;28;20180;-84
2022/11/06 09:12:39;;;;;;;4.87;2.60;;;11.50;99.90;;;;;;5063712;28;20184;-84
2022/11/06 09:15:06;;;;;;;3.77;2.10;;;11.50;99.90;;;;;;5062278;28;20191;-84
2022/11/06 09:17:32;;;;;;;7.88;4.32;;;11.60;99.90;;;;;;5050681;28;20169;-83
2022/11/06 09:19:57;;;;;;;7.40;1.90;;;11.80;99.90;;;;;;5052685;28;20308;-83
2022/11/06 09:22:23;;;;;;;4.47;1.70;;;12.00;99.90;;;;;;5030844;28;20182;-83
2022/11/06 09:24:48;;;;;;;2.37;1.30;;;12.00;99.90;;;;;;5052797;28;20692;-83
2022/11/06 09:27:14;;;;;;;6.67;1.63;;;12.10;99.90;;;;;;5064216;28;20266;-83
2022/11/06 09:29:42;;;;;;;4.33;1.60;;;12.20;99.90;;;;;;5070479;28;20614;-83
2022/11/06 09:32:08;;;;;;;4.47;2.40;;;12.10;99.90;;;;;;5076157;28;20181;-84
2022/11/06 09:34:34;;;;;;;5.00;1.90;;;12.10;99.90;;;;;;5076071;28;20778;-83
2022/11/06 09:37:01;;;;;;;6.90;1.57;;;12.00;99.90;;;;;;5039511;28;20423;-84
2022/11/06 09:39:27;;;;;;;5.73;1.90;;;12.10;99.90;;;;;;5074580;28;20247;-84
2022/11/06 09:42:15;;;;;;;6.07;1.60;;;12.10;99.90;;;;;;5073583;28;20447;-82
2022/11/06 09:45:02;;;;;;;3.67;1.70;;;12.10;99.90;;;;;;5030497;28;20236;-82
2022/11/06 09:47:35;;;;;;;7.83;1.90;;;12.10;99.90;;;;;;5069250;28;20395;-85
2022/11/06 09:50:03;;;;;;;3.90;2.10;;;12.20;99.90;;;;;;5073746;28;20533;-82
2022/11/06 09:52:44;;;;;;;2.97;1.80;;;12.40;99.90;;;;;;5075002;28;20399;-82
2022/11/06 09:55:18;;;;;;;2.13;1.33;;;12.60;99.90;;;;;;5073062;28;20411;-84
2022/11/06 09:57:53;;;;;;;7.33;1.70;;;12.80;99.90;;;;;;5076812;28;20408;-84
2022/11/06 10:00:19;;;;;;;4.03;1.30;;;13.10;99.90;;;;;;5075500;28;20401;-86
2022/11/06 10:02:51;;;;;;;3.53;1.73;;;13.50;99.90;;;;;;5050742;28;20433;-84
2022/11/06 10:05:26;;;;;;;5.40;1.73;;;13.80;99.90;;;;;;5035399;28;20182;-84
2022/11/06 10:08:01;;;;;;;3.37;1.40;;;13.90;99.90;;;;;;5047205;28;20402;-82
2022/11/06 10:10:40;;;;;;;5.83;1.97;;;13.90;99.90;;;;;;5046245;28;20441;-84
2022/11/06 10:13:26;;;;;;;3.37;1.67;;;13.90;99.90;;;;;;5034563;28;20393;-83
2022/11/06 10:16:23;;;;;;;2.83;1.20;;;13.80;99.90;;;;;;5032806;28;20487;-83
2022/11/06 10:19:01;;;;;;;4.43;1.47;;;14.00;99.90;;;;;;5037918;28;20786;-82
2022/11/06 10:21:47;;;;;;;2.90;1.43;;;14.00;99.90;;;;;;5061499;28;20461;-84
2022/11/06 10:24:43;;;;;;;4.20;1.30;;;14.00;99.90;;;;;;5054647;28;20444;-83
2022/11/06 10:27:40;;;;;;;2.37;1.20;;;14.10;99.90;;;;;;5053734;28;20475;-83
2022/11/06 10:30:11;;;;;;;2.90;1.57;;;14.10;99.90;;;;;;5049962;28;20432;-85
2022/11/06 10:32:46;;;;;;;2.80;1.40;;;13.90;99.90;;;;;;5052877;28;20432;-83
2022/11/06 10:35:19;;;;;;;2.40;1.53;;;13.80;99.90;;;;;;5054453;28;20392;-84
2022/11/06 10:37:54;;;;;;;2.30;1.00;;;13.70;99.90;;;;;;5052823;28;20444;-85
2022/11/06 10:40:25;;;;;;;4.67;1.67;;;13.40;99.90;;;;;;5052852;28;20422;-84
2022/11/06 10:43:18;;;;;;;6.90;2.23;;;13.30;99.90;;;;;;5054427;28;20550;-84
2022/11/06 10:45:49;;;;;;;4.90;1.80;;;13.20;99.90;;;;;;5024097;28;20498;-86
2022/11/06 10:48:20;;;;;;;2.50;1.83;;;13.00;99.90;;;;;;5052450;28;20447;-84
2022/11/06 10:51:02;;;;;;;5.80;1.77;;;12.90;99.90;;;;;;5052771;28;20427;-84
2022/11/06 10:53:54;;;;;;;2.80;1.37;;;12.90;99.90;;;;;;5053100;28;20420;-83
2022/11/06 10:56:33;;;;;;;4.07;1.80;;;12.90;99.90;;;;;;5052286;28;20484;-83
2022/11/06 10:58:58;;;;;;;2.90;1.47;;;13.00;99.90;;;;;;5054185;28;20380;-83
2022/11/06 11:01:24;;;;;;;4.13;1.80;;;13.10;99.90;;;;;;5036360;28;20472;-84
2022/11/06 11:03:50;;;;;;;2.80;1.30;;;13.10;99.90;;;;;;5025232;28;20209;-84
2022/11/06 11:06:16;;;;;;;5.23;1.93;;;13.20;99.90;;;;;;5032538;28;20210;-85
2022/11/06 11:08:47;;;;;;;4.60;1.67;;;13.10;99.90;;;;;;5032517;28;20495;-83
2022/11/06 11:11:13;;;;;;;4.63;1.47;;;13.20;99.90;;;;;;5033524;28;20416;-83
2022/11/06 11:13:44;;;;;;;5.60;1.80;;;13.20;99.90;;;;;;5032129;28;20425;-83
2022/11/06 11:16:21;;;;;;;4.03;1.60;;;13.20;99.90;;;;;;5034170;28;20181;-83
2022/11/06 11:18:48;;;;;;;4.50;1.43;;;13.20;99.90;;;;;;5034234;28;20417;-84
2022/11/06 11:21:16;;;;;;;3.37;1.50;;;13.20;99.90;;;;;;5033696;28;20417;-85
2022/11/06 11:23:42;;;;;;;1.73;1.20;;;13.20;99.90;;;;;;5033929;28;20778;-84
2022/11/06 11:26:24;;;;;;;3.77;1.60;;;13.40;99.90;;;;;;5015655;28;20476;-83
2022/11/06 11:28:58;;;;;;;3.83;1.40;;;13.70;99.90;;;;;;5032314;28;20501;-84
2022/11/06 11:31:33;;;;;;;4.60;1.90;;;13.90;99.90;;;;;;5031907;28;20523;-84
2022/11/06 11:34:04;;;;;;;6.57;1.60;;;14.00;99.90;;;;;;5033712;28;20709;-83
2022/11/06 11:36:51;;;;;;;7.53;2.07;;;14.40;99.90;;;;;;5031878;28;20417;-83
2022/11/06 11:39:20;;;;;;;3.13;1.23;;;14.90;99.90;;;;;;5032943;28;20409;-82
2022/11/06 11:41:45;;;;;;;5.80;1.83;;;15.20;99.90;;;;;;5028997;28;20500;-84
2022/11/06 11:44:15;;;;;;;1.87;1.47;;;15.10;99.90;;;;;;5027455;28;20508;-83
2022/11/06 11:46:50;;;;;;;3.87;1.60;;;15.20;99.90;;;;;;5027086;28;20286;-84
2022/11/06 11:49:29;;;;;;;2.20;1.80;;;15.40;99.90;;;;;;5026955;28;20843;-83
2022/11/06 11:51:57;;;;;;;3.23;1.70;;;15.60;99.90;;;;;;5032368;28;20795;-83
2022/11/06 11:54:26;;;;;;;3.90;2.30;;;15.70;99.90;;;;;;5033834;28;20424;-83
2022/11/06 11:56:58;;;;;;;7.90;2.40;;;15.70;99.90;;;;;;5033320;28;20387;-83
2022/11/06 11:59:34;;;;;;;4.23;2.43;;;15.70;99.90;;;;;;5031474;28;20516;-83
2022/11/06 12:02:11;;;;;;;2.27;1.63;;;15.50;99.90;;;;;;5036265;28;20472;-85
2022/11/06 12:04:44;;;;;;;2.60;1.33;;;15.20;99.90;;;;;;5033040;28;20364;-84
2022/11/06 12:07:32;;;;;;;4.70;2.70;;;14.80;99.90;;;;;;5035138;28;20465;-82
2022/11/06 12:09:59;;;;;;;6.13;1.77;;;14.70;99.90;;;;;;5034164;28;20820;-85
2022/11/06 12:12:35;;;;;;;4.63;2.73;;;14.60;99.90;;;;;;5046986;28;20431;-83
2022/11/06 12:15:20;;;;;;;4.83;1.20;;;14.50;99.90;;;;;;5071031;28;20426;-83
2022/11/06 12:18:04;;;;;;;9.10;6.50;;;14.50;99.90;;;;;;5072349;28;20419;-82
2022/11/06 12:20:39;;;;;;;3.87;2.07;;;14.50;99.90;;;;;;5055817;28;20451;-83
2022/11/06 12:23:17;;;;;;;4.67;1.77;;;14.70;99.90;;;;;;5056055;28;20418;-84
2022/11/06 12:25:52;;;;;;;4.03;3.63;;;15.00;99.90;;;;;;5038093;28;20542;-83
2022/11/06 12:28:22;;;;;;;4.37;1.93;;;15.30;99.90;;;;;;5036809;28;20880;-84
2022/11/06 12:30:57;;;;;;;5.47;2.20;;;15.30;99.90;;;;;;5036756;28;20483;-86
2022/11/06 12:33:27;;;;;;;4.00;1.87;;;15.40;99.90;;;;;;5035445;28;20412;-83
2022/11/06 12:36:00;;;;;;;6.40;2.50;;;15.40;99.90;;;;;;5053920;28;20863;-84
2022/11/06 12:38:50;;;;;;;5.27;1.97;;;15.30;99.90;;;;;;5055241;28;20816;-86
2022/11/06 12:41:24;;;;;;;7.30;2.87;;;15.50;99.90;;;;;;5057290;28;20420;-86
2022/11/06 12:43:50;;;;;;;3.83;2.10;;;15.60;99.90;;;;;;5056207;28;20403;-85
2022/11/06 12:46:33;;;;;;;3.40;1.50;;;15.60;99.90;;;;;;5054544;28;20561;-86
2022/11/06 12:49:36;;;;;;;2.93;1.60;;;15.70;99.90;;;;;;5055207;28;20428;-85
2022/11/06 12:52:11;;;;;;;4.40;1.43;;;15.80;99.90;;;;;;5052995;28;20408;-85
2022/11/06 12:54:57;;;;;;;2.87;1.00;;;15.70;99.90;;;;;;5050982;28;20427;-85
2022/11/06 12:57:36;;;;;;;3.83;2.53;;;15.40;99.90;;;;;;5051070;28;20439;-85
2022/11/06 13:00:21;;;;;;;2.03;1.10;;;15.10;99.90;;;;;;5050894;28;20408;-83
2022/11/06 13:03:02;;;;;;;2.70;1.67;;;15.00;99.90;;;;;;5051012;28;20394;-83
2022/11/06 13:05:37;;;;;;;3.07;1.30;;;14.80;99.90;;;;;;5050668;28;20589;-85
2022/11/06 13:08:40;;;;;;;2.77;2.57;;;14.80;99.90;;;;;;5054606;28;20439;-84
2022/11/06 13:11:15;;;;;;;4.13;1.90;;;14.80;99.90;;;;;;5054950;28;20404;-83
2022/11/06 13:13:48;;;;;;;4.03;1.70;;;14.80;99.90;;;;;;5055647;28;20402;-84
2022/11/06 13:16:36;;;;;;;2.47;1.37;;;15.00;99.90;;;;;;5056523;28;20475;-85
2022/11/06 13:19:09;;;;;;;4.87;1.40;;;15.10;99.90;;;;;;5055783;28;20420;-87
2022/11/06 13:21:58;;;;;;;3.27;1.67;;;14.90;99.90;;;;;;5053660;28;20463;-84
2022/11/06 13:24:30;;;;;;;4.40;2.37;;;14.70;99.90;;;;;;5066620;28;20435;-85
2022/11/06 13:27:08;;;;;;;5.77;1.93;;;14.60;99.90;;;;;;5074527;28;20466;-84